Terminal Aerodrome Forecast
Issued by NWS Upton, NY

Home | Current Version | Previous Version | Text Only | Print | Product List | Glossary On
Versions: 1 2 3 4 5 6 7 8 9 10 11 12 13 14 15 16 17 18 19 20 21 22 23 24 25 26 27
000
FTUS41 KOKX 261400 AAA
TAFBDR
TAF AMD
KBDR 261435Z 2615/2712 04014KT P6SM BKN030
      TEMPO 2615/2616 2SM -SN BR BKN015
     FM261600 05013G20KT 2SM -SN BR BKN012
     FM261900 05018G23KT 3/4SM -SN BR BKN007
     FM262300 04023G30KT 1/2SM SN FZFG VV005
     FM270400 02025G34KT 1/4SM +SN FZFG VV003=

USA.gov is the U.S. government's official web portal to all federal, state and local government web resources and services.